Time;durP1;ratioP1;P1;durP2;ratioP2;P2;SDS_P1;SDS_P2;PMS_P1;PMS_P2;Temp;Humidity;BMP_temperature;BMP_pressure;BME280_temperature;BME280_humidity;BME280_pressure;Samples;Min_cycle;Max_cycle;Signal;HPM_P1;HPM_P2
2022/07/26 00:00:24;;;;;;;16.25;4.40;;;;;;;19.07;100.00;101419.94;7382099;19;20022;-79
2022/07/26 00:02:54;;;;;;;17.15;4.47;;;;;;;19.07;100.00;101420.81;7382638;19;20010;-79
2022/07/26 00:05:24;;;;;;;12.05;3.58;;;;;;;19.06;100.00;101435.00;7381845;19;20018;-79
2022/07/26 00:08:09;;;;;;;13.30;3.50;;;;;;;18.98;100.00;101425.38;7382296;19;20039;-81
2022/07/26 00:10:41;;;;;;;13.88;4.10;;;;;;;18.98;100.00;101431.56;7385687;19;20014;-80
2022/07/26 00:13:16;;;;;;;12.13;4.03;;;;;;;18.95;100.00;101432.47;7382636;19;20106;-80
2022/07/26 00:15:46;;;;;;;13.00;3.53;;;;;;;18.93;100.00;101430.75;7382199;19;20019;-78
2022/07/26 00:18:18;;;;;;;9.50;2.83;;;;;;;18.89;100.00;101442.31;7385622;19;20396;-78
2022/07/26 00:20:49;;;;;;;9.02;3.40;;;;;;;18.84;100.00;101446.78;7381662;19;20014;-79
2022/07/26 00:23:19;;;;;;;8.70;3.22;;;;;;;18.87;100.00;101433.47;7384613;19;20015;-79
2022/07/26 00:25:49;;;;;;;12.30;3.63;;;;;;;18.78;100.00;101445.06;7383246;19;20014;-79
2022/07/26 00:28:22;;;;;;;9.15;3.83;;;;;;;18.76;100.00;101452.19;7382674;19;20015;-79
2022/07/26 00:30:55;;;;;;;7.87;3.43;;;;;;;18.76;100.00;101456.63;7383169;19;20587;-79
2022/07/26 00:33:27;;;;;;;7.05;3.70;;;;;;;18.75;100.00;101450.41;7383782;19;20010;-79
2022/07/26 00:35:59;;;;;;;7.68;3.22;;;;;;;18.77;100.00;101461.03;7378408;19;20444;-79
2022/07/26 00:38:29;;;;;;;8.98;3.50;;;;;;;18.78;100.00;101460.13;7380942;19;20081;-78
2022/07/26 00:41:01;;;;;;;10.13;3.28;;;;;;;18.74;100.00;101459.28;7381086;19;20017;-79
2022/07/26 00:43:34;;;;;;;7.70;3.30;;;;;;;18.70;100.00;101459.38;7383461;19;20018;-80
2022/07/26 00:46:05;;;;;;;7.53;3.33;;;;;;;18.69;100.00;101460.28;7387833;19;20006;-79
2022/07/26 00:48:36;;;;;;;8.48;3.30;;;;;;;18.65;100.00;101461.19;7383157;19;20101;-80
2022/07/26 00:51:07;;;;;;;9.48;3.88;;;;;;;18.64;100.00;101468.28;7384861;19;20368;-81
2022/07/26 00:53:37;;;;;;;9.95;3.88;;;;;;;18.61;100.00;101466.53;7380291;19;20281;-78
2022/07/26 00:56:08;;;;;;;10.02;4.25;;;;;;;18.56;100.00;101460.34;7381443;19;20044;-79
2022/07/26 00:58:42;;;;;;;7.40;3.70;;;;;;;18.56;100.00;101468.31;7383515;19;20259;-80
2022/07/26 01:01:13;;;;;;;8.40;3.60;;;;;;;18.57;100.00;101478.06;7382444;19;20034;-80
2022/07/26 01:03:44;;;;;;;6.85;3.22;;;;;;;18.53;100.00;101486.94;7384476;19;20737;-80
2022/07/26 01:06:14;;;;;;;8.77;3.60;;;;;;;18.50;100.00;101479.00;7380877;19;20439;-80
2022/07/26 01:08:45;;;;;;;9.85;4.00;;;;;;;18.48;100.00;101488.75;7380312;19;20060;-79
2022/07/26 01:11:15;;;;;;;8.45;4.15;;;;;;;18.43;100.00;101473.75;7381652;19;20118;-80
2022/07/26 01:13:51;;;;;;;7.93;3.40;;;;;;;18.40;100.00;101487.94;7379903;19;20020;-79
2022/07/26 01:16:21;;;;;;;10.73;3.92;;;;;;;18.34;100.00;101480.03;7379719;19;20368;-80
2022/07/26 01:18:52;;;;;;;10.15;3.70;;;;;;;18.24;100.00;101478.34;7382500;19;20010;-79
2022/07/26 01:21:24;;;;;;;7.18;3.22;;;;;;;18.22;100.00;101482.78;7380025;19;20039;-78
2022/07/26 01:23:58;;;;;;;9.55;3.72;;;;;;;18.18;100.00;101489.00;7378928;19;20042;-79
2022/07/26 01:26:28;;;;;;;8.90;3.38;;;;;;;18.11;100.00;101489.97;7383409;19;20081;-79
2022/07/26 01:28:58;;;;;;;11.35;3.25;;;;;;;18.08;100.00;101497.94;7379779;19;20034;-79
2022/07/26 01:31:28;;;;;;;12.50;3.88;;;;;;;18.05;100.00;101493.53;7381893;19;20413;-79
2022/07/26 01:33:59;;;;;;;10.70;4.95;;;;;;;17.96;100.00;101498.91;7382968;19;20676;-78
2022/07/26 01:36:29;;;;;;;13.77;4.13;;;;;;;17.91;100.00;101498.94;7383342;19;20406;-78
2022/07/26 01:39:02;;;;;;;11.07;3.67;;;;;;;17.86;100.00;101492.78;7381541;19;20438;-77
2022/07/26 01:41:32;;;;;;;14.70;4.00;;;;;;;17.81;100.00;101502.53;7379551;19;20063;-77
2022/07/26 01:44:07;;;;;;;9.68;4.30;;;;;;;17.76;100.00;101501.69;7380983;19;20521;-77
2022/07/26 01:46:38;;;;;;;9.45;4.18;;;;;;;17.72;100.00;101491.97;7367104;19;20048;-78
2022/07/26 01:49:08;;;;;;;7.70;3.83;;;;;;;17.69;100.00;101497.28;7380221;19;20018;-78
2022/07/26 01:51:44;;;;;;;10.07;3.80;;;;;;;17.64;100.00;101491.13;7381616;19;20010;-77
2022/07/26 01:54:17;;;;;;;10.05;4.30;;;;;;;17.66;100.00;101494.69;7373348;19;20110;-79
2022/07/26 01:56:54;;;;;;;9.73;4.53;;;;;;;17.66;100.00;101500.00;7380502;19;20018;-77
2022/07/26 01:59:24;;;;;;;10.05;3.95;;;;;;;17.61;100.00;101492.03;7378740;19;20023;-77
2022/07/26 02:01:54;;;;;;;9.77;4.38;;;;;;;17.59;100.00;101498.25;7381612;19;20010;-77
2022/07/26 02:07:08;;;;;;;10.27;3.40;;;;;;;17.62;100.00;101499.09;7382508;19;20010;-77
2022/07/26 02:09:45;;;;;;;9.63;3.78;;;;;;;17.59;100.00;101498.25;7383193;19;20463;-77
2022/07/26 02:12:16;;;;;;;11.25;4.10;;;;;;;17.57;100.00;101500.00;7382367;19;20137;-76
2022/07/26 02:14:46;;;;;;;10.88;3.50;;;;;;;17.56;100.00;101493.81;7383837;19;20011;-76
2022/07/26 02:17:16;;;;;;;9.45;4.15;;;;;;;17.52;100.00;101497.38;7382792;19;20042;-78
2022/07/26 02:19:46;;;;;;;11.40;4.15;;;;;;;17.52;100.00;101496.50;7383979;19;20027;-77
2022/07/26 02:22:16;;;;;;;8.85;3.70;;;;;;;17.53;100.00;101501.81;7385452;19;20036;-78
2022/07/26 02:24:49;;;;;;;13.98;3.78;;;;;;;17.51;100.00;101500.03;7383759;19;20002;-77
2022/07/26 02:27:19;;;;;;;8.38;3.38;;;;;;;17.52;100.00;101496.50;7384593;19;20031;-78
2022/07/26 02:29:50;;;;;;;8.15;3.50;;;;;;;17.54;100.00;101506.22;7382346;19;20029;-78
2022/07/26 02:32:20;;;;;;;11.98;3.58;;;;;;;17.47;100.00;101503.59;7382904;19;20388;-77
2022/07/26 02:34:50;;;;;;;8.90;3.45;;;;;;;17.47;100.00;101516.84;7377456;19;20003;-77
2022/07/26 02:37:22;;;;;;;8.73;3.20;;;;;;;17.41;100.00;101507.16;7377279;19;20010;-77
2022/07/26 02:39:55;;;;;;;10.80;3.10;;;;;;;17.37;100.00;101507.19;7378516;19;20483;-80
2022/07/26 02:42:25;;;;;;;12.93;3.53;;;;;;;17.32;100.00;101510.72;7376665;19;20010;-80
2022/07/26 02:44:55;;;;;;;7.00;3.35;;;;;;;17.32;100.00;101517.78;7378649;19;20292;-80
2022/07/26 02:47:30;;;;;;;11.00;3.47;;;;;;;17.26;100.00;101513.41;7379052;19;20080;-79
2022/07/26 02:50:00;;;;;;;10.43;3.40;;;;;;;17.25;100.00;101503.69;7374264;19;20066;-79
2022/07/26 02:52:30;;;;;;;11.45;3.50;;;;;;;17.21;100.00;101516.94;7374530;19;20019;-79
2022/07/26 02:55:03;;;;;;;9.82;3.10;;;;;;;17.18;100.00;101511.66;7376818;19;20032;-79
2022/07/26 02:57:33;;;;;;;9.70;3.38;;;;;;;17.15;100.00;101517.84;7374750;19;20002;-80
2022/07/26 03:00:22;;;;;;;9.82;2.92;;;;;;;17.15;100.00;101517.84;7378363;19;20007;-80
2022/07/26 03:02:53;;;;;;;9.70;3.47;;;;;;;17.11;100.00;101513.44;7377883;19;20022;-80
2022/07/26 03:05:23;;;;;;;10.88;3.42;;;;;;;17.07;100.00;101524.06;7377114;19;20017;-80
2022/07/26 03:07:53;;;;;;;13.25;3.40;;;;;;;17.00;100.00;101539.09;7378712;19;20327;-80
2022/07/26 03:10:26;;;;;;;8.52;2.92;;;;;;;16.98;100.00;101530.25;7376342;19;20364;-79
2022/07/26 03:12:56;;;;;;;7.43;2.92;;;;;;;16.97;100.00;101532.03;7377790;19;20015;-81
2022/07/26 03:15:30;;;;;;;7.22;2.72;;;;;;;16.93;100.00;101527.63;7375746;19;20493;-79
2022/07/26 03:18:00;;;;;;;7.53;3.05;;;;;;;16.91;100.00;101528.50;7376761;19;20019;-79
2022/07/26 03:20:30;;;;;;;6.72;2.50;;;;;;;16.88;100.00;101531.16;7374704;19;20007;-80
2022/07/26 03:23:00;;;;;;;7.05;2.88;;;;;;;16.87;100.00;101532.03;7376747;19;20078;-80
2022/07/26 03:25:33;;;;;;;9.68;3.22;;;;;;;16.85;100.00;101541.75;7375427;19;20006;-79
2022/07/26 03:28:06;;;;;;;8.32;3.10;;;;;;;16.77;100.00;101531.19;7375736;19;20094;-80
2022/07/26 03:30:37;;;;;;;8.60;3.20;;;;;;;16.76;100.00;101541.78;7377064;19;20015;-80
2022/07/26 03:33:07;;;;;;;9.98;3.53;;;;;;;16.75;100.00;101540.00;7374355;19;20013;-80
2022/07/26 03:35:37;;;;;;;12.43;3.55;;;;;;;16.73;100.00;101549.72;7375886;19;20052;-80
2022/07/26 03:38:08;;;;;;;8.05;2.78;;;;;;;16.73;100.00;101560.31;7377786;19;20149;-80
2022/07/26 03:40:43;;;;;;;5.90;2.90;;;;;;;16.72;100.00;101553.25;7376621;19;20887;-79
2022/07/26 03:43:15;;;;;;;8.50;2.70;;;;;;;16.67;100.00;101551.50;7377053;19;20011;-79
2022/07/26 03:45:52;;;;;;;8.23;3.00;;;;;;;16.66;100.00;101549.72;7379101;19;20017;-78
2022/07/26 03:48:26;;;;;;;9.73;3.40;;;;;;;16.63;100.00;101554.13;7378888;19;20006;-80
2022/07/26 03:50:56;;;;;;;4.47;3.15;;;;;;;16.65;100.00;101553.25;7374214;19;20557;-78
2022/07/26 03:53:26;;;;;;;7.45;3.13;;;;;;;16.61;100.00;101546.19;7369304;19;20060;-76
2022/07/26 03:58:42;;;;;;;7.78;3.38;;;;;;;16.55;100.00;101547.97;7373033;19;20051;-76
2022/07/26 04:01:12;;;;;;;8.27;3.13;;;;;;;16.54;100.00;101549.72;7374201;19;20471;-77
2022/07/26 04:03:42;;;;;;;8.90;3.38;;;;;;;16.53;100.00;101555.91;7373112;19;20122;-78
2022/07/26 04:06:16;;;;;;;7.75;3.33;;;;;;;16.56;100.00;101553.25;7376133;19;20041;-77
2022/07/26 04:08:46;;;;;;;7.20;3.10;;;;;;;16.53;100.00;101558.56;7372899;19;20022;-77
2022/07/26 04:11:21;;;;;;;5.63;2.67;;;;;;;16.49;100.00;101558.56;7377575;19;20087;-76
2022/07/26 04:13:57;;;;;;;8.88;3.30;;;;;;;16.49;100.00;101562.09;7380363;19;20041;-77
2022/07/26 04:16:27;;;;;;;13.10;3.75;;;;;;;16.46;100.00;101569.13;7379759;19;20035;-77
2022/07/26 04:18:57;;;;;;;8.23;3.38;;;;;;;16.42;100.00;101565.59;7379177;19;20025;-76
2022/07/26 04:21:27;;;;;;;7.07;3.25;;;;;;;16.43;100.00;101571.78;7379582;19;20383;-77
2022/07/26 04:23:57;;;;;;;7.05;3.38;;;;;;;16.40;100.00;101561.19;7380973;19;20476;-79
2022/07/26 04:26:30;;;;;;;13.15;4.05;;;;;;;16.39;100.00;101570.91;7379446;19;20006;-79
2022/07/26 04:29:03;;;;;;;10.40;3.72;;;;;;;16.40;100.00;101566.47;7382292;19;20038;-77
2022/07/26 04:31:33;;;;;;;12.63;4.82;;;;;;;16.40;100.00;101574.44;7380270;19;20089;-77
2022/07/26 04:34:05;;;;;;;9.50;4.35;;;;;;;16.41;100.00;101571.78;7383962;19;20351;-77
2022/07/26 04:36:35;;;;;;;8.85;3.92;;;;;;;16.44;100.00;101566.50;7379656;19;20075;-77
2022/07/26 04:39:07;;;;;;;13.02;4.55;;;;;;;16.43;100.00;101569.13;7378065;19;20021;-78
2022/07/26 04:41:39;;;;;;;12.13;4.80;;;;;;;16.48;100.00;101570.91;7379718;19;20049;-76
2022/07/26 04:44:09;;;;;;;15.30;4.85;;;;;;;16.53;100.00;101577.09;7381105;19;20018;-76
2022/07/26 04:46:42;;;;;;;17.33;7.20;;;;;;;16.59;100.00;101569.16;7379107;19;20047;-76
2022/07/26 04:49:15;;;;;;;9.52;4.38;;;;;;;16.65;100.00;101573.56;7380137;19;20047;-77
2022/07/26 04:51:45;;;;;;;11.35;4.38;;;;;;;16.70;100.00;101570.91;7381593;19;20010;-77
2022/07/26 04:54:19;;;;;;;10.70;4.43;;;;;;;16.74;100.00;101589.44;7373256;19;20015;-77
2022/07/26 04:56:52;;;;;;;9.45;3.05;;;;;;;16.73;100.00;101592.09;7380374;19;20050;-77
2022/07/26 04:59:25;;;;;;;6.63;2.63;;;;;;;16.67;100.00;101607.13;7379888;19;20011;-77
2022/07/26 05:01:56;;;;;;;6.53;3.05;;;;;;;16.47;100.00;101600.03;7381682;19;20071;-77
2022/07/26 05:04:26;;;;;;;7.03;2.08;;;;;;;16.36;100.00;101602.66;7381321;19;20466;-79
2022/07/26 05:07:01;;;;;;;6.10;2.30;;;;;;;16.35;100.00;101612.38;7381854;19;20554;-77
2022/07/26 05:09:34;;;;;;;3.65;2.13;;;;;;;16.25;100.00;101609.69;7380125;19;20039;-77
2022/07/26 05:12:07;;;;;;;8.10;2.65;;;;;;;16.30;100.00;101618.53;7382759;19;20018;-76
2022/07/26 05:14:37;;;;;;;6.38;1.77;;;;;;;16.20;100.00;101614.09;7382927;19;20003;-79
2022/07/26 05:17:07;;;;;;;4.43;1.77;;;;;;;16.07;100.00;101631.69;7381683;19;20015;-78
2022/07/26 05:19:39;;;;;;;4.18;1.73;;;;;;;16.09;100.00;101631.69;7382318;19;20011;-78
2022/07/26 05:22:12;;;;;;;5.68;1.92;;;;;;;16.07;100.00;101630.81;7384231;19;20018;-80
2022/07/26 05:24:42;;;;;;;6.40;2.03;;;;;;;15.96;100.00;101644.00;7387996;19;20022;-79
2022/07/26 05:27:14;;;;;;;3.25;1.70;;;;;;;15.88;100.00;101651.91;7388320;19;20043;-78
2022/07/26 05:29:45;;;;;;;5.63;2.20;;;;;;;15.85;100.00;101658.94;7390504;19;20031;-77
2022/07/26 05:32:15;;;;;;;3.17;1.77;;;;;;;15.87;100.00;101650.13;7389674;19;20010;-76
2022/07/26 05:34:45;;;;;;;5.13;2.13;;;;;;;15.91;100.00;101662.50;7388925;19;20039;-76
2022/07/26 05:37:15;;;;;;;5.45;2.00;;;;;;;15.78;100.00;101665.09;7393082;19;20020;-76
2022/07/26 05:39:45;;;;;;;5.53;2.20;;;;;;;15.72;100.00;101665.94;7387072;19;20031;-76
2022/07/26 05:42:18;;;;;;;5.68;1.88;;;;;;;15.75;100.00;101665.94;7380149;19;20489;-76
2022/07/26 05:44:48;;;;;;;5.82;2.55;;;;;;;15.75;100.00;101668.59;7376445;19;20014;-77
2022/07/26 05:47:21;;;;;;;8.13;1.92;;;;;;;15.74;100.00;101658.88;7378602;19;20479;-76
2022/07/26 05:49:51;;;;;;;4.97;1.90;;;;;;;15.77;100.00;101666.84;7377227;19;20416;-75
2022/07/26 05:52:21;;;;;;;3.22;1.70;;;;;;;15.81;100.00;101673.91;7372723;19;20040;-76
2022/07/26 05:54:51;;;;;;;5.82;1.90;;;;;;;15.81;100.00;101668.63;7376496;19;20007;-75
2022/07/26 05:57:23;;;;;;;7.20;1.95;;;;;;;15.82;100.00;101673.03;7375899;19;20158;-74
2022/07/26 05:59:53;;;;;;;7.38;2.22;;;;;;;15.90;100.00;101676.59;7377362;19;20018;-75
2022/07/26 06:02:26;;;;;;;9.67;2.30;;;;;;;15.98;100.00;101677.53;7376516;19;20014;-74
2022/07/26 06:04:56;;;;;;;6.60;2.10;;;;;;;16.05;100.00;101675.78;7375695;19;20515;-76
2022/07/26 06:07:26;;;;;;;8.93;2.13;;;;;;;15.98;100.00;101684.59;7374211;19;20010;-75
2022/07/26 06:09:56;;;;;;;9.23;2.13;;;;;;;16.10;100.00;101684.63;7373691;19;20022;-75
2022/07/26 06:12:32;;;;;;;5.22;1.85;;;;;;;16.09;100.00;101692.56;7375018;19;20083;-76
2022/07/26 06:15:02;;;;;;;5.18;2.45;;;;;;;16.09;100.00;101697.84;7377202;19;20089;-75
2022/07/26 06:17:43;;;;;;;6.68;2.05;;;;;;;16.15;100.00;101700.53;7374631;19;20570;-75
2022/07/26 06:20:16;;;;;;;8.15;2.28;;;;;;;16.12;100.00;101709.34;7371409;19;20007;-75
2022/07/26 06:22:46;;;;;;;5.80;2.27;;;;;;;16.15;100.00;101711.13;7375666;19;20414;-76
2022/07/26 06:25:16;;;;;;;7.63;2.13;;;;;;;16.19;100.00;101703.19;7376564;19;20848;-77
2022/07/26 06:27:49;;;;;;;7.88;2.10;;;;;;;16.17;100.00;101706.72;7375088;19;20019;-77
2022/07/26 06:30:19;;;;;;;7.63;2.22;;;;;;;16.26;100.00;101714.69;7375195;19;20533;-77
2022/07/26 06:32:49;;;;;;;7.88;2.20;;;;;;;16.20;100.00;101722.59;7376358;19;20020;-75
2022/07/26 06:35:19;;;;;;;8.63;2.38;;;;;;;16.43;100.00;101728.88;7373192;19;20014;-78
2022/07/26 06:37:49;;;;;;;7.78;2.17;;;;;;;16.51;100.00;101729.78;7376799;19;20512;-76
2022/07/26 06:40:20;;;;;;;8.40;2.30;;;;;;;16.59;100.00;101732.44;7373986;19;20021;-76
2022/07/26 06:42:53;;;;;;;9.02;2.30;;;;;;;16.72;100.00;101739.56;7374385;19;20014;-76
2022/07/26 06:45:24;;;;;;;9.35;2.17;;;;;;;16.83;100.00;101734.28;7376462;19;20022;-76
2022/07/26 06:47:54;;;;;;;10.05;2.80;;;;;;;17.00;100.00;101740.50;7375605;19;20033;-76
2022/07/26 06:50:25;;;;;;;10.23;2.13;;;;;;;17.08;100.00;101733.44;7377345;19;20120;-75
2022/07/26 06:52:55;;;;;;;5.95;1.95;;;;;;;17.14;100.00;101741.38;7369913;19;20018;-76
2022/07/26 06:55:26;;;;;;;8.23;2.33;;;;;;;17.21;100.00;101745.81;7376492;19;20015;-79
2022/07/26 06:57:58;;;;;;;8.30;2.30;;;;;;;17.44;100.00;101742.28;7378471;19;20011;-79
2022/07/26 07:00:29;;;;;;;5.78;2.00;;;;;;;17.49;100.00;101741.38;7376884;19;20011;-78
2022/07/26 07:03:00;;;;;;;10.82;3.08;;;;;;;17.72;100.00;101744.00;7380215;19;20022;-79
2022/07/26 07:05:30;;;;;;;11.48;3.03;;;;;;;17.58;100.00;101751.09;7378936;19;20018;-79
2022/07/26 07:08:02;;;;;;;6.35;2.10;;;;;;;17.40;100.00;101749.34;7380282;19;20007;-80
2022/07/26 07:10:34;;;;;;;8.00;1.80;;;;;;;17.43;100.00;101751.13;7377982;19;20010;-80
2022/07/26 07:13:07;;;;;;;4.30;1.95;;;;;;;17.70;100.00;101742.25;7378081;19;20019;-79
2022/07/26 07:15:37;;;;;;;7.93;2.00;;;;;;;17.60;100.00;101752.88;7374792;19;20017;-80
2022/07/26 07:18:07;;;;;;;5.93;1.58;;;;;;;17.66;100.00;101753.78;7378754;19;20271;-80
2022/07/26 07:20:37;;;;;;;8.43;2.00;;;;;;;17.49;100.00;101756.41;7374828;19;20023;-80
2022/07/26 07:23:08;;;;;;;5.90;1.73;;;;;;;17.19;100.00;101752.00;7378140;19;20018;-82
2022/07/26 07:25:41;;;;;;;6.00;1.45;;;;;;;17.04;100.00;101774.06;7377904;19;20014;-82
2022/07/26 07:28:16;;;;;;;7.93;1.77;;;;;;;17.10;100.00;101773.19;7376520;19;20039;-81
2022/07/26 07:30:47;;;;;;;5.85;1.70;;;;;;;17.29;100.00;101774.97;7377198;19;20003;-83
2022/07/26 07:33:18;;;;;;;6.60;1.65;;;;;;;17.67;100.00;101777.66;7375470;19;20078;-81
2022/07/26 07:35:52;;;;;;;4.05;1.50;;;;;;;17.74;100.00;101778.50;7377104;19;20126;-81
2022/07/26 07:38:22;;;;;;;6.38;1.58;;;;;;;17.58;100.00;101782.94;7379994;19;20018;-79
2022/07/26 07:40:53;;;;;;;8.27;1.95;;;;;;;18.10;100.00;101780.19;7375702;19;20010;-79
2022/07/26 07:43:28;;;;;;;8.93;1.70;;;;;;;18.10;100.00;101785.50;7376712;19;20020;-81
2022/07/26 07:45:58;;;;;;;6.13;1.65;;;;;;;18.04;100.00;101793.47;7381457;19;20043;-80
2022/07/26 07:48:28;;;;;;;4.22;1.70;;;;;;;17.98;100.00;101789.97;7384570;19;20013;-79
2022/07/26 07:50:59;;;;;;;5.63;1.60;;;;;;;18.32;100.00;101799.59;7384319;19;20015;-79
2022/07/26 07:53:32;;;;;;;5.65;1.65;;;;;;;17.92;100.00;101791.75;7382533;19;20012;-79
2022/07/26 07:56:04;;;;;;;6.40;2.05;;;;;;;18.10;100.00;101793.47;7383785;19;20018;-79
2022/07/26 07:58:37;;;;;;;4.47;1.73;;;;;;;18.49;100.00;101789.81;7386469;19;20586;-79
2022/07/26 08:01:10;;;;;;;6.40;1.63;;;;;;;18.84;100.00;101785.19;7381070;19;20478;-78
2022/07/26 08:03:42;;;;;;;9.95;1.70;;;;;;;18.88;100.00;101784.28;7387315;19;20022;-80
2022/07/26 08:06:21;;;;;;;5.35;2.33;;;;;;;18.82;100.00;101786.97;7388493;19;20864;-80
2022/07/26 08:08:51;;;;;;;8.88;2.13;;;;;;;18.57;100.00;101783.56;7384825;19;20027;-77
2022/07/26 08:11:21;;;;;;;5.35;1.70;;;;;;;18.36;100.00;101796.94;7384764;19;20011;-79
2022/07/26 08:14:01;;;;;;;6.60;1.70;;;;;;;18.37;100.00;101798.69;7384876;19;20444;-79
2022/07/26 08:16:32;;;;;;;5.97;2.00;;;;;;;18.08;100.00;101795.25;7387914;19;20438;-77
2022/07/26 08:19:03;;;;;;;6.82;1.77;;;;;;;18.16;100.00;101801.41;7388298;19;20035;-78
2022/07/26 08:21:33;;;;;;;3.55;1.50;;;;;;;17.89;100.00;101805.91;7385181;19;20006;-78
2022/07/26 08:24:05;;;;;;;4.75;1.63;;;;;;;17.78;100.00;101810.34;7387773;19;20030;-76
2022/07/26 08:26:35;;;;;;;5.00;1.73;;;;;;;17.83;100.00;101813.88;7383338;19;20018;-77
2022/07/26 08:29:08;;;;;;;4.35;1.30;;;;;;;17.74;100.00;101819.19;7386137;19;20014;-77
2022/07/26 08:31:39;;;;;;;3.67;1.90;;;;;;;18.82;100.00;101824.19;7384337;19;20036;-78
2022/07/26 08:34:09;;;;;;;5.47;1.30;;;;;;;19.43;100.00;101820.25;7385842;19;20027;-81
2022/07/26 08:36:39;;;;;;;3.95;2.20;;;;;;;19.93;100.00;101814.50;7383950;19;20021;-80
2022/07/26 08:39:29;;;;;;;5.45;2.00;;;;;;;20.15;100.00;101817.81;7381794;19;20018;-78
2022/07/26 08:42:00;;;;;;;5.63;1.52;;;;;;;20.15;100.00;101817.81;7380204;19;20082;-78
2022/07/26 08:44:33;;;;;;;4.07;1.25;;;;;;;19.95;100.00;101820.69;7382021;19;20455;-80
2022/07/26 08:47:03;;;;;;;3.00;1.57;;;;;;;19.57;100.00;101826.41;7386696;19;20018;-79
2022/07/26 08:49:33;;;;;;;4.53;1.17;;;;;;;19.37;100.00;101834.50;7382543;19;20284;-79
2022/07/26 08:52:07;;;;;;;4.38;1.52;;;;;;;18.86;100.00;101835.69;7383049;19;20039;-79
2022/07/26 08:54:37;;;;;;;3.50;1.40;;;;;;;18.38;100.00;101842.06;7380248;19;20014;-78
2022/07/26 08:57:10;;;;;;;4.30;1.50;;;;;;;18.05;100.00;101845.69;7380863;19;20031;-80
2022/07/26 08:59:43;;;;;;;3.17;1.27;;;;;;;18.10;100.00;101849.22;7383702;19;20006;-79
2022/07/26 09:02:15;;;;;;;5.40;1.80;;;;;;;18.15;100.00;101844.78;7376119;19;20086;-78
2022/07/26 09:04:46;;;;;;;4.72;1.95;;;;;;;18.15;100.00;101850.09;7380632;19;20014;-76
2022/07/26 09:07:19;;;;;;;7.45;1.67;;;;;;;18.32;100.00;101853.59;7379324;19;20043;-78
2022/07/26 09:10:00;;;;;;;6.75;1.75;;;;;;;18.29;100.00;101861.56;7381161;19;20122;-76
2022/07/26 09:12:34;;;;;;;6.03;1.70;;;;;;;18.14;100.00;101854.53;7382464;19;20022;-78
2022/07/26 09:15:10;;;;;;;4.72;1.42;;;;;;;18.22;100.00;101868.66;7381897;19;20027;-78
2022/07/26 09:17:43;;;;;;;5.55;1.55;;;;;;;18.35;100.00;101872.19;7378844;19;20013;-75
2022/07/26 09:20:17;;;;;;;6.22;2.10;;;;;;;18.26;100.00;101875.75;7378325;19;20007;-76
2022/07/26 09:23:05;;;;;;;7.50;1.60;;;;;;;18.29;100.00;101875.72;7375969;19;20010;-76
2022/07/26 09:25:40;;;;;;;4.53;1.58;;;;;;;18.22;100.00;101883.72;7378978;19;20015;-75
2022/07/26 09:28:25;;;;;;;5.78;1.42;;;;;;;18.34;100.00;101883.69;7378269;19;20130;-75
2022/07/26 09:31:00;;;;;;;5.88;2.15;;;;;;;18.37;100.00;101894.31;7376048;19;20034;-74
2022/07/26 09:33:46;;;;;;;8.15;1.90;;;;;;;18.30;100.00;101889.91;7378215;19;20010;-75
2022/07/26 09:36:19;;;;;;;6.63;1.70;;;;;;;18.34;100.00;101883.69;7376978;19;20021;-74
2022/07/26 09:38:51;;;;;;;6.93;1.98;;;;;;;18.66;100.00;101890.72;7378236;19;20091;-76
2022/07/26 09:41:23;;;;;;;7.55;1.63;;;;;;;18.85;100.00;101893.28;7379614;19;20086;-76
2022/07/26 09:43:57;;;;;;;6.20;1.55;;;;;;;18.55;100.00;101902.25;7379569;19;20003;-74
2022/07/26 09:46:34;;;;;;;7.57;1.85;;;;;;;18.69;100.00;101899.56;7375237;19;20014;-74
2022/07/26 09:49:18;;;;;;;8.30;1.80;;;;;;;18.73;100.00;101898.63;7379610;19;20022;-74
2022/07/26 09:51:50;;;;;;;7.43;1.58;;;;;;;18.64;100.00;101904.00;7377369;19;20022;-76
2022/07/26 09:54:35;;;;;;;4.72;1.58;;;;;;;18.72;100.00;101906.66;7374868;19;20011;-77
2022/07/26 09:57:05;;;;;;;6.72;1.80;;;;;;;18.50;100.00;101912.00;7376794;19;20007;-75
2022/07/26 09:59:36;;;;;;;6.13;1.90;;;;;;;18.82;100.00;101908.34;7379952;19;20010;-75
2022/07/26 10:02:09;;;;;;;6.15;1.88;;;;;;;19.11;100.00;101917.09;7372965;19;20023;-75
2022/07/26 10:04:42;;;;;;;4.95;1.50;;;;;;;18.79;100.00;101919.88;7377537;19;20021;-76
2022/07/26 10:07:12;;;;;;;6.25;1.60;;;;;;;18.48;100.00;101918.19;7376205;19;20021;-75
2022/07/26 10:09:48;;;;;;;7.15;1.60;;;;;;;18.35;100.00;101927.06;7376935;19;20063;-77
2022/07/26 10:12:21;;;;;;;10.18;1.70;;;;;;;18.35;100.00;101924.41;7377054;19;20019;-80
2022/07/26 10:14:57;;;;;;;6.57;1.52;;;;;;;18.36;100.00;101929.72;7379959;19;20007;-77
2022/07/26 10:17:54;;;;;;;2.72;1.25;;;;;;;18.54;100.00;101921.72;7377563;19;20445;-79
2022/07/26 10:20:43;;;;;;;5.60;1.83;;;;;;;19.00;98.40;101921.56;7379824;19;20010;-78
2022/07/26 10:23:38;;;;;;;7.40;1.90;;;;;;;19.45;95.88;101924.88;7375571;19;20554;-79
2022/07/26 10:26:10;;;;;;;4.07;1.70;;;;;;;19.72;94.00;101922.09;7376555;19;20015;-79
2022/07/26 10:28:42;;;;;;;5.07;1.70;;;;;;;18.98;92.08;101927.78;7379033;19;20123;-78
2022/07/26 10:31:29;;;;;;;5.28;1.90;;;;;;;20.14;93.32;101919.94;7377624;19;20006;-79
2022/07/26 10:34:04;;;;;;;5.00;1.65;;;;;;;20.67;87.11;101929.19;7375178;19;20031;-79
2022/07/26 10:36:38;;;;;;;2.40;1.10;;;;;;;19.80;85.97;101929.97;7379851;19;20415;-79
2022/07/26 10:39:14;;;;;;;3.53;1.40;;;;;;;19.78;87.21;101929.97;7378323;19;20021;-77
2022/07/26 10:41:47;;;;;;;4.72;1.40;;;;;;;20.18;87.78;101935.00;7377979;19;20007;-77
2022/07/26 10:44:21;;;;;;;6.23;1.50;;;;;;;20.55;86.84;101930.22;7377970;19;20006;-78
2022/07/26 10:47:22;;;;;;;3.72;1.42;;;;;;;21.16;85.13;101937.47;7379499;19;20019;-80
2022/07/26 10:50:00;;;;;;;3.90;1.30;;;;;;;20.44;85.32;101937.44;7380186;19;20378;-80
2022/07/26 10:52:32;;;;;;;10.85;2.08;;;;;;;20.36;87.87;101940.16;7373608;19;19999;-79
2022/07/26 10:55:11;;;;;;;4.28;1.85;;;;;;;21.32;84.49;101940.84;7378240;19;20032;-80
2022/07/26 10:57:42;;;;;;;7.90;1.80;;;;;;;21.57;80.01;101934.25;7376841;19;20045;-79
2022/07/26 11:00:19;;;;;;;6.28;1.50;;;;;;;21.01;80.31;101937.66;7378817;19;20014;-80
2022/07/26 11:02:55;;;;;;;7.70;1.80;;;;;;;20.59;81.08;101941.72;7376305;19;20479;-79
2022/07/26 11:05:33;;;;;;;9.27;1.67;;;;;;;20.49;81.63;101947.16;7380843;19;20051;-78
2022/07/26 11:08:07;;;;;;;5.50;1.52;;;;;;;20.56;80.42;101956.84;7380167;19;20121;-77
2022/07/26 11:10:42;;;;;;;5.20;1.60;;;;;;;20.71;81.19;101945.16;7382422;19;20047;-79
2022/07/26 11:13:14;;;;;;;10.60;2.28;;;;;;;20.93;81.40;101943.09;7385968;19;20042;-79
2022/07/26 11:15:48;;;;;;;9.63;2.00;;;;;;;21.18;81.04;101949.00;7386460;19;20010;-79
2022/07/26 11:18:23;;;;;;;6.97;1.88;;;;;;;21.49;81.17;101952.16;7382931;19;20474;-79
2022/07/26 11:20:58;;;;;;;9.68;2.20;;;;;;;21.59;78.99;101952.91;7390156;19;20010;-79
2022/07/26 11:23:37;;;;;;;5.63;1.58;;;;;;;21.09;76.67;101959.78;7388180;19;19999;-79
2022/07/26 11:26:13;;;;;;;8.73;2.35;;;;;;;20.30;78.99;101963.28;7397809;19;20006;-79
2022/07/26 11:28:47;;;;;;;9.85;2.22;;;;;;;20.21;79.37;101964.25;7392842;19;20643;-78
2022/07/26 11:31:19;;;;;;;9.27;2.40;;;;;;;19.68;79.96;101970.03;7381066;19;20320;-77
2022/07/26 11:33:52;;;;;;;11.40;2.90;;;;;;;19.47;80.27;101971.00;7383069;19;20010;-77
2022/07/26 11:36:41;;;;;;;6.07;1.73;;;;;;;19.70;81.24;101977.09;7381861;19;20477;-79
2022/07/26 11:39:12;;;;;;;8.85;2.15;;;;;;;20.01;79.23;101976.84;7382007;19;20260;-77
2022/07/26 11:41:43;;;;;;;11.93;2.65;;;;;;;20.12;77.97;101970.53;7379265;19;20050;-77
2022/07/26 11:44:18;;;;;;;6.40;1.60;;;;;;;19.97;78.35;101968.00;7377261;19;20108;-77
2022/07/26 11:46:49;;;;;;;9.13;2.47;;;;;;;19.99;77.95;101973.31;7379645;19;20014;-78